createdAt,value
2023-09-14T00:00:11.128Z,22.98
2023-09-14T00:01:13.549Z,22.97
2023-09-14T00:02:16.742Z,22.95
2023-09-14T00:03:19.564Z,22.93
2023-09-14T00:05:24.684Z,22.87
2023-09-14T00:06:26.893Z,22.86
2023-09-14T00:07:29.033Z,22.88
2023-09-14T00:08:31.669Z,22.80
2023-09-14T00:09:33.949Z,22.81
2023-09-14T00:10:36.180Z,22.82
2023-09-14T00:11:38.354Z,22.81
2023-09-14T00:12:40.564Z,22.80
2023-09-14T00:13:42.790Z,22.76
2023-09-14T00:14:44.912Z,22.77
2023-09-14T00:15:47.214Z,22.74
2023-09-14T00:16:49.528Z,22.77
2023-09-14T00:17:51.807Z,22.73
2023-09-14T00:18:53.958Z,22.71
2023-09-14T00:19:56.130Z,22.69
2023-09-14T00:20:58.876Z,22.74
2023-09-14T00:22:01.071Z,22.68
2023-09-14T00:23:04.845Z,22.64
2023-09-14T00:24:07.432Z,22.63
2023-09-14T00:25:09.687Z,22.60
2023-09-14T00:26:12.406Z,22.60
2023-09-14T00:27:14.608Z,22.57
2023-09-14T00:28:18.391Z,22.57
2023-09-14T00:29:20.551Z,22.53
2023-09-14T00:30:23.976Z,22.55
2023-09-14T00:31:26.193Z,22.53
2023-09-14T00:32:28.558Z,22.52
2023-09-14T00:33:30.751Z,22.51
2023-09-14T00:34:32.913Z,22.48
2023-09-14T00:35:35.057Z,22.45
2023-09-14T00:36:37.569Z,22.42
2023-09-14T00:37:40.271Z,22.43
2023-09-14T00:38:42.629Z,22.41
2023-09-14T00:39:45.256Z,22.39
2023-09-14T00:40:47.509Z,22.40
2023-09-14T00:41:49.687Z,22.37
2023-09-14T00:42:52.522Z,22.36
2023-09-14T00:43:54.710Z,22.35
2023-09-14T00:44:56.849Z,22.37
2023-09-14T00:45:59.035Z,22.33
2023-09-14T00:47:01.345Z,22.30
2023-09-14T00:48:04.062Z,22.27
2023-09-14T00:49:06.375Z,22.26
2023-09-14T00:50:08.924Z,22.27
2023-09-14T00:51:11.159Z,22.20
2023-09-14T00:52:15.077Z,22.16
2023-09-14T00:53:17.692Z,22.13
2023-09-14T00:54:21.279Z,22.09
2023-09-14T00:55:24.713Z,22.07
2023-09-14T00:56:27.959Z,22.06
2023-09-14T00:57:30.201Z,22.03
2023-09-14T00:58:32.370Z,21.98
2023-09-14T00:59:34.940Z,21.96
2023-09-14T01:00:37.181Z,21.94
2023-09-14T01:01:39.556Z,21.87
2023-09-14T01:02:42.158Z,21.82
2023-09-14T01:03:44.951Z,21.81
2023-09-14T01:04:47.970Z,21.81
2023-09-14T01:05:50.703Z,21.77
2023-09-14T01:06:52.959Z,21.72
2023-09-14T01:07:55.648Z,21.72
2023-09-14T01:08:58.459Z,21.69
2023-09-14T01:10:01.329Z,21.67
2023-09-14T01:11:03.558Z,21.66
2023-09-14T01:12:09.264Z,21.65
2023-09-14T01:13:24.279Z,21.66
2023-09-14T01:14:42.989Z,21.63
2023-09-14T01:15:56.179Z,21.63
2023-09-14T01:17:08.242Z,21.60
2023-09-14T01:18:31.906Z,21.60
2023-09-14T01:19:47.282Z,21.55
2023-09-14T01:21:05.218Z,21.50
2023-09-14T01:22:32.103Z,21.50
2023-09-14T01:24:04.517Z,21.49
2023-09-14T01:25:10.567Z,21.52
2023-09-14T01:26:13.013Z,21.53
2023-09-14T01:27:15.964Z,21.51
2023-09-14T01:28:19.656Z,21.51
2023-09-14T01:29:21.856Z,21.45
2023-09-14T01:30:23.992Z,21.44
2023-09-14T01:31:27.113Z,21.44
2023-09-14T01:32:29.405Z,21.46
2023-09-14T01:33:32.666Z,21.45
2023-09-14T01:34:34.993Z,21.40
2023-09-14T01:36:04.799Z,21.36
2023-09-14T01:37:07.536Z,21.36
2023-09-14T01:38:09.976Z,21.25
2023-09-14T01:39:12.793Z,21.26
2023-09-14T01:40:15.057Z,21.24
2023-09-14T01:41:17.881Z,21.18
2023-09-14T01:42:22.111Z,21.12
2023-09-14T01:43:24.642Z,21.10
2023-09-14T01:44:28.398Z,21.11
2023-09-14T01:45:31.998Z,21.14
2023-09-14T01:46:34.324Z,21.13
2023-09-14T01:47:36.654Z,21.11
2023-09-14T01:48:38.862Z,21.09
2023-09-14T01:49:41.026Z,21.03
2023-09-14T01:50:43.776Z,21.00
2023-09-14T01:51:45.973Z,20.98
2023-09-14T01:52:48.316Z,20.97
2023-09-14T01:53:50.484Z,20.94
2023-09-14T01:54:52.715Z,20.93
2023-09-14T01:55:54.882Z,20.87
2023-09-14T01:56:57.076Z,20.83
2023-09-14T01:57:59.224Z,20.81
2023-09-14T01:59:01.452Z,20.83
2023-09-14T02:00:22.343Z,20.78
2023-09-14T02:01:24.516Z,20.80
2023-09-14T02:02:27.802Z,20.79
2023-09-14T02:03:29.997Z,20.79
2023-09-14T02:04:32.570Z,20.73
2023-09-14T02:05:35.845Z,20.73
2023-09-14T02:06:38.228Z,20.74
2023-09-14T02:07:40.438Z,20.74
2023-09-14T02:08:42.705Z,20.75
2023-09-14T02:09:44.871Z,20.72
2023-09-14T02:10:47.063Z,20.70
2023-09-14T02:11:49.258Z,20.65
2023-09-14T02:12:51.455Z,20.62
2023-09-14T02:13:53.649Z,20.61
2023-09-14T02:14:55.761Z,20.62
2023-09-14T02:15:58.425Z,20.63
2023-09-14T02:17:00.692Z,20.55
2023-09-14T02:18:03.076Z,20.54
2023-09-14T02:19:05.284Z,20.55
2023-09-14T02:20:10.000Z,20.53
2023-09-14T02:21:12.805Z,20.46
2023-09-14T02:22:14.944Z,20.48
2023-09-14T02:23:18.973Z,20.43
2023-09-14T02:24:21.223Z,20.41
2023-09-14T02:25:23.365Z,20.44
2023-09-14T02:26:25.518Z,20.42
2023-09-14T02:27:27.681Z,20.43
2023-09-14T02:28:29.834Z,20.40
2023-09-14T02:29:31.998Z,20.39
2023-09-14T02:30:34.172Z,20.37
2023-09-14T02:31:36.387Z,20.33
2023-09-14T02:32:38.854Z,20.29
2023-09-14T02:33:41.248Z,20.33
2023-09-14T02:34:43.523Z,20.34
2023-09-14T02:35:52.421Z,20.37
2023-09-14T02:36:55.556Z,20.37
2023-09-14T02:37:57.738Z,20.36
2023-09-14T02:38:59.912Z,20.34
2023-09-14T02:40:02.162Z,20.35
2023-09-14T02:41:04.391Z,20.38
2023-09-14T02:42:06.693Z,20.40
2023-09-14T02:43:09.155Z,20.41
2023-09-14T02:44:11.426Z,20.37
2023-09-14T02:45:13.600Z,20.38
2023-09-14T02:46:16.044Z,20.40
2023-09-14T02:47:18.217Z,20.41
2023-09-14T02:48:20.415Z,20.34
2023-09-14T02:49:22.707Z,20.39
2023-09-14T02:50:24.850Z,20.38
2023-09-14T02:51:27.110Z,20.30
2023-09-14T02:52:29.275Z,20.32
2023-09-14T02:53:31.456Z,20.31
2023-09-14T02:54:33.693Z,20.30
2023-09-14T02:55:36.163Z,20.25
2023-09-14T02:56:38.297Z,20.27
2023-09-14T02:57:40.705Z,20.21
2023-09-14T02:58:42.899Z,20.19
2023-09-14T02:59:45.038Z,20.19
2023-09-14T03:00:47.197Z,20.19
2023-09-14T03:01:50.947Z,20.14
2023-09-14T03:02:53.412Z,20.16
2023-09-14T03:03:55.752Z,20.16
2023-09-14T03:04:57.910Z,20.17
2023-09-14T03:06:00.053Z,20.20
2023-09-14T03:07:03.173Z,20.21
2023-09-14T03:08:05.770Z,20.16
2023-09-14T03:09:08.110Z,20.19
2023-09-14T03:10:10.631Z,20.17
2023-09-14T03:11:14.073Z,20.16
2023-09-14T03:12:16.233Z,20.14
2023-09-14T03:13:18.458Z,20.18
2023-09-14T03:14:20.645Z,20.14
2023-09-14T03:15:22.846Z,20.14
2023-09-14T03:16:25.126Z,20.14
2023-09-14T03:17:27.378Z,20.14
2023-09-14T03:18:29.656Z,20.14
2023-09-14T03:19:31.902Z,20.12
2023-09-14T03:20:34.093Z,20.18
2023-09-14T03:21:36.282Z,20.17
2023-09-14T03:22:38.460Z,20.16
2023-09-14T03:23:40.616Z,20.13
2023-09-14T03:24:43.137Z,20.13
2023-09-14T03:25:46.167Z,20.12
2023-09-14T03:26:48.368Z,20.14
2023-09-14T03:27:50.564Z,20.15
2023-09-14T03:28:52.814Z,20.15
2023-09-14T03:29:55.014Z,20.10
2023-09-14T03:30:57.211Z,20.11
2023-09-14T03:31:59.432Z,20.10
2023-09-14T03:33:01.684Z,20.13
2023-09-14T03:34:03.927Z,20.11
2023-09-14T03:35:06.502Z,20.11
2023-09-14T03:36:08.657Z,20.15
2023-09-14T03:37:10.835Z,20.19
2023-09-14T03:38:13.053Z,20.21
2023-09-14T03:39:16.483Z,20.23
2023-09-14T03:40:18.670Z,20.23
2023-09-14T03:41:20.943Z,20.28
2023-09-14T03:42:23.768Z,20.23
2023-09-14T03:43:25.951Z,20.21
2023-09-14T03:44:28.144Z,20.23
2023-09-14T03:45:30.376Z,20.29
2023-09-14T03:46:32.725Z,20.30
2023-09-14T03:47:35.000Z,20.26
2023-09-14T03:48:37.441Z,20.31
2023-09-14T03:49:39.657Z,20.28
2023-09-14T03:50:41.855Z,20.22
2023-09-14T03:51:44.128Z,20.24
2023-09-14T03:52:46.311Z,20.27
2023-09-14T03:53:48.496Z,20.26
2023-09-14T03:54:50.695Z,20.24
2023-09-14T03:55:54.037Z,20.24
2023-09-14T03:56:56.411Z,20.26
2023-09-14T03:57:58.929Z,20.23
2023-09-14T03:59:01.151Z,20.22
2023-09-14T04:00:08.545Z,20.23
2023-09-14T04:01:10.892Z,20.21
2023-09-14T04:02:13.212Z,20.26
2023-09-14T04:03:17.673Z,20.24
2023-09-14T04:04:19.773Z,20.22
2023-09-14T04:05:21.911Z,20.24
2023-09-14T04:06:24.203Z,20.22
2023-09-14T04:07:26.406Z,20.24
2023-09-14T04:08:28.558Z,20.24
2023-09-14T04:09:30.913Z,20.21
2023-09-14T04:10:33.027Z,20.15
2023-09-14T04:11:35.393Z,20.15
2023-09-14T04:12:39.342Z,20.10
2023-09-14T04:13:41.602Z,20.14
2023-09-14T04:15:02.060Z,20.19
2023-09-14T04:16:06.168Z,20.24
2023-09-14T04:17:08.504Z,20.25
2023-09-14T04:18:10.653Z,20.16
2023-09-14T04:19:13.866Z,20.16
2023-09-14T04:20:16.136Z,20.16
2023-09-14T04:21:18.308Z,20.12
2023-09-14T04:22:20.519Z,20.13
2023-09-14T04:23:22.891Z,20.12
2023-09-14T04:24:25.095Z,20.16
2023-09-14T04:25:28.247Z,20.12
2023-09-14T04:26:30.503Z,20.09
2023-09-14T04:27:32.900Z,20.09
2023-09-14T04:28:35.094Z,20.09
2023-09-14T04:29:37.286Z,20.08
2023-09-14T04:30:47.030Z,20.07
2023-09-14T04:31:49.396Z,20.06
2023-09-14T04:32:52.056Z,20.03
2023-09-14T04:33:54.308Z,20.06
2023-09-14T04:34:56.515Z,20.08
2023-09-14T04:35:59.638Z,20.02
2023-09-14T04:37:01.933Z,19.99
2023-09-14T04:38:04.307Z,20.00
2023-09-14T04:39:06.951Z,20.00
2023-09-14T04:40:10.811Z,19.97
2023-09-14T04:41:13.186Z,19.94
2023-09-14T04:42:15.378Z,19.89
2023-09-14T04:43:17.584Z,19.83
2023-09-14T04:44:19.820Z,19.85
2023-09-14T04:45:22.050Z,19.88
2023-09-14T04:46:24.435Z,19.89
2023-09-14T04:47:26.696Z,19.94
2023-09-14T04:48:29.657Z,19.94
2023-09-14T04:49:31.843Z,19.84
2023-09-14T04:50:34.387Z,19.81
2023-09-14T04:51:36.564Z,19.80
2023-09-14T04:52:38.772Z,19.81
2023-09-14T04:53:40.960Z,19.82
2023-09-14T04:54:43.306Z,19.85
2023-09-14T04:55:46.506Z,19.86
2023-09-14T04:56:48.695Z,19.87
2023-09-14T04:57:56.656Z,19.88
2023-09-14T04:58:58.827Z,19.91
2023-09-14T05:00:00.996Z,19.90
2023-09-14T05:01:03.844Z,19.90
2023-09-14T05:02:06.018Z,19.91
2023-09-14T05:03:08.273Z,19.93
2023-09-14T05:04:10.581Z,19.92
2023-09-14T05:05:12.880Z,19.96
2023-09-14T05:06:15.022Z,20.00
2023-09-14T05:07:17.243Z,20.05
2023-09-14T05:08:19.454Z,20.10
2023-09-14T05:09:21.589Z,20.02
2023-09-14T05:10:24.196Z,20.07
2023-09-14T05:11:26.347Z,20.10
2023-09-14T05:12:29.384Z,20.08
2023-09-14T05:13:31.777Z,20.07
2023-09-14T05:14:33.933Z,20.03
2023-09-14T05:15:36.098Z,20.07
2023-09-14T05:16:38.484Z,20.00
2023-09-14T05:17:40.762Z,19.97
2023-09-14T05:18:43.131Z,20.03
2023-09-14T05:19:45.460Z,20.03
2023-09-14T05:20:51.114Z,20.03
2023-09-14T05:21:53.251Z,20.00
2023-09-14T05:22:55.442Z,20.02
2023-09-14T05:23:57.543Z,20.06
2023-09-14T05:24:59.718Z,20.05
2023-09-14T05:26:01.909Z,20.06
2023-09-14T05:27:04.356Z,20.10
2023-09-14T05:28:07.610Z,20.07
2023-09-14T05:29:09.822Z,20.09
2023-09-14T05:30:12.117Z,20.12
2023-09-14T05:31:14.475Z,20.17
2023-09-14T05:32:16.797Z,20.17
2023-09-14T05:33:19.550Z,20.31
2023-09-14T05:34:24.456Z,20.40
2023-09-14T05:35:27.444Z,20.41
2023-09-14T05:36:29.592Z,20.38
2023-09-14T05:37:31.767Z,20.38
2023-09-14T05:38:33.886Z,20.34
2023-09-14T05:39:36.047Z,20.27
2023-09-14T05:40:38.180Z,20.23
2023-09-14T05:41:41.659Z,20.37
2023-09-14T05:42:43.907Z,20.41
2023-09-14T05:43:46.045Z,20.41
2023-09-14T05:44:49.206Z,20.42
2023-09-14T05:45:52.433Z,20.43
2023-09-14T05:46:54.797Z,20.48
2023-09-14T05:47:57.146Z,20.54
2023-09-14T05:48:59.486Z,20.56
2023-09-14T05:50:01.912Z,20.57
2023-09-14T05:51:04.530Z,20.51
2023-09-14T05:52:06.738Z,20.51
2023-09-14T05:53:08.978Z,20.51
2023-09-14T05:54:11.144Z,20.56
2023-09-14T05:55:13.382Z,20.60
2023-09-14T05:56:15.817Z,20.62
2023-09-14T05:57:17.999Z,20.60
2023-09-14T05:58:20.174Z,20.61
2023-09-14T05:59:31.932Z,20.59
2023-09-14T06:00:34.678Z,20.58
2023-09-14T06:01:37.488Z,20.63
2023-09-14T06:02:42.927Z,20.66
2023-09-14T06:03:45.213Z,20.56
2023-09-14T06:04:48.538Z,20.64
2023-09-14T06:05:50.806Z,20.66
2023-09-14T06:06:52.954Z,20.72
2023-09-14T06:07:55.882Z,20.78
2023-09-14T06:08:58.229Z,20.76
2023-09-14T06:10:00.465Z,20.84
2023-09-14T06:11:02.660Z,20.89
2023-09-14T06:12:05.249Z,20.96
2023-09-14T06:13:07.483Z,21.03
2023-09-14T06:14:09.672Z,21.11
2023-09-14T06:15:11.889Z,21.13
2023-09-14T06:16:14.230Z,21.13
2023-09-14T06:17:16.435Z,21.14
2023-09-14T06:18:18.688Z,21.22
2023-09-14T06:19:21.175Z,21.22
2023-09-14T06:20:23.396Z,21.11
2023-09-14T06:21:25.532Z,21.05
2023-09-14T06:22:27.783Z,20.98
2023-09-14T06:23:29.918Z,20.98
2023-09-14T06:24:32.133Z,20.94
2023-09-14T06:25:34.268Z,20.85
2023-09-14T06:26:36.386Z,20.85
2023-09-14T06:27:38.636Z,20.87
2023-09-14T06:28:41.213Z,20.80
2023-09-14T06:29:43.420Z,20.86
2023-09-14T06:30:45.645Z,20.97
2023-09-14T06:31:47.958Z,21.03
2023-09-14T06:32:50.297Z,21.15
2023-09-14T06:33:52.911Z,21.20
2023-09-14T06:34:55.217Z,21.35
2023-09-14T06:35:57.422Z,21.38
2023-09-14T06:36:59.581Z,21.45
2023-09-14T06:38:05.276Z,21.59
2023-09-14T06:39:08.302Z,21.56
2023-09-14T06:40:11.351Z,21.55
2023-09-14T06:41:14.616Z,21.62
2023-09-14T06:42:16.782Z,21.67
2023-09-14T06:43:18.995Z,21.55
2023-09-14T06:44:22.394Z,21.58
2023-09-14T06:45:24.511Z,21.53
2023-09-14T06:46:26.872Z,21.57
2023-09-14T06:47:29.100Z,21.49
2023-09-14T06:48:31.256Z,21.58
2023-09-14T06:49:33.421Z,21.58
2023-09-14T06:50:35.690Z,21.72
2023-09-14T06:51:37.852Z,21.77
2023-09-14T06:52:40.024Z,21.83
2023-09-14T06:53:42.153Z,21.62
2023-09-14T06:54:46.921Z,21.57
2023-09-14T06:55:49.091Z,21.55
2023-09-14T06:56:51.433Z,21.53
2023-09-14T06:57:53.764Z,21.44
2023-09-14T06:58:56.216Z,21.38
2023-09-14T06:59:58.481Z,21.39
2023-09-14T07:01:05.699Z,21.48
2023-09-14T07:02:08.149Z,21.42
2023-09-14T07:03:10.585Z,21.54
2023-09-14T07:04:12.911Z,21.72
2023-09-14T07:05:15.385Z,21.90
2023-09-14T07:06:17.545Z,22.04
2023-09-14T07:07:19.799Z,22.09
2023-09-14T07:08:22.009Z,22.19
2023-09-14T07:09:24.778Z,22.22
2023-09-14T07:10:27.117Z,22.32
2023-09-14T07:11:29.269Z,22.42
2023-09-14T07:12:31.404Z,22.41
2023-09-14T07:13:34.171Z,22.44
2023-09-14T07:14:36.354Z,22.48
2023-09-14T07:15:38.456Z,22.42
2023-09-14T07:16:41.070Z,22.47
2023-09-14T07:17:43.490Z,22.60
2023-09-14T07:18:46.884Z,22.63
2023-09-14T07:19:49.905Z,22.57
2023-09-14T07:20:53.427Z,22.47
2023-09-14T07:21:58.187Z,22.42
2023-09-14T07:23:00.446Z,22.34
2023-09-14T07:24:02.588Z,22.31
2023-09-14T07:25:06.245Z,22.25
2023-09-14T07:26:08.957Z,22.15
2023-09-14T07:27:11.174Z,22.11
2023-09-14T07:28:13.448Z,22.13
2023-09-14T07:29:16.533Z,22.29
2023-09-14T07:30:18.690Z,22.35
2023-09-14T07:31:20.876Z,22.29
2023-09-14T07:32:23.180Z,22.27
2023-09-14T07:33:27.084Z,22.27
2023-09-14T07:34:29.282Z,22.28
2023-09-14T07:35:31.488Z,22.27
2023-09-14T07:36:33.632Z,22.18
2023-09-14T07:37:36.236Z,22.17
2023-09-14T07:38:38.698Z,22.32
2023-09-14T07:39:40.850Z,22.48
2023-09-14T07:40:43.419Z,22.51
2023-09-14T07:41:45.600Z,22.51
2023-09-14T07:42:47.885Z,22.48
2023-09-14T07:43:50.022Z,22.54
2023-09-14T07:44:52.256Z,22.68
2023-09-14T07:45:58.117Z,22.74
2023-09-14T07:47:00.476Z,22.77
2023-09-14T07:48:04.663Z,22.72
2023-09-14T07:49:07.329Z,22.77
2023-09-14T07:50:09.882Z,22.96
2023-09-14T07:51:12.035Z,22.94
2023-09-14T07:52:14.229Z,22.98
2023-09-14T07:53:16.827Z,23.08
2023-09-14T07:54:19.104Z,23.09
2023-09-14T07:55:21.588Z,23.00
2023-09-14T07:56:23.979Z,23.05
2023-09-14T07:57:26.129Z,22.95
2023-09-14T07:58:28.631Z,22.81
2023-09-14T07:59:30.817Z,22.90
2023-09-14T08:00:36.472Z,22.86
2023-09-14T08:01:38.932Z,22.95
2023-09-14T08:02:41.335Z,22.96
2023-09-14T08:03:43.775Z,22.82
2023-09-14T08:04:46.258Z,22.74
2023-09-14T08:05:48.538Z,22.75
2023-09-14T08:06:50.698Z,22.90
2023-09-14T08:07:53.915Z,23.11
2023-09-14T08:08:56.422Z,23.23
2023-09-14T08:09:58.600Z,23.29
2023-09-14T08:11:01.717Z,23.16
2023-09-14T08:12:04.087Z,23.21
2023-09-14T08:13:06.275Z,23.20
2023-09-14T08:14:08.554Z,23.21
2023-09-14T08:15:11.316Z,23.13
2023-09-14T08:16:13.572Z,23.09
2023-09-14T08:17:15.760Z,22.99
2023-09-14T08:18:19.814Z,23.00
2023-09-14T08:19:22.038Z,22.94
2023-09-14T08:20:24.227Z,22.81
2023-09-14T08:21:26.377Z,22.70
2023-09-14T08:22:28.753Z,22.63
2023-09-14T08:23:30.927Z,22.61
2023-09-14T08:24:33.083Z,22.64
2023-09-14T08:25:37.097Z,22.58
2023-09-14T08:26:39.218Z,22.58
2023-09-14T08:27:41.680Z,22.63
2023-09-14T08:28:43.803Z,22.74
2023-09-14T08:29:46.554Z,22.86
2023-09-14T08:30:49.768Z,23.12
2023-09-14T08:31:52.095Z,23.44
2023-09-14T08:32:54.290Z,23.48
2023-09-14T08:33:56.564Z,24.17
2023-09-14T08:34:59.693Z,24.68
2023-09-14T08:36:01.886Z,24.83
2023-09-14T08:37:04.842Z,25.24
2023-09-14T08:38:08.323Z,25.78
2023-09-14T08:39:16.346Z,25.72
2023-09-14T08:40:20.050Z,25.85
2023-09-14T08:41:52.447Z,26.11
2023-09-14T08:42:55.831Z,26.44
2023-09-14T08:43:58.455Z,26.55
2023-09-14T08:45:00.667Z,26.83
2023-09-14T08:46:03.500Z,26.37
2023-09-14T08:47:06.545Z,26.33
2023-09-14T08:48:09.852Z,26.72
2023-09-14T08:49:12.807Z,26.89
2023-09-14T08:50:16.023Z,27.10
2023-09-14T08:51:18.935Z,27.52
2023-09-14T08:52:21.596Z,27.68
2023-09-14T08:53:23.949Z,27.42
2023-09-14T08:54:26.781Z,27.47
2023-09-14T08:55:31.237Z,27.23
2023-09-14T08:56:34.272Z,26.90
2023-09-14T08:57:37.487Z,27.19
2023-09-14T08:58:40.704Z,27.48
2023-09-14T08:59:42.838Z,27.98
2023-09-14T09:00:46.221Z,28.32
2023-09-14T09:01:52.093Z,28.02
2023-09-14T09:02:55.760Z,27.49
2023-09-14T09:03:58.076Z,27.20
2023-09-14T09:05:00.445Z,26.97
2023-09-14T09:06:02.807Z,26.61
2023-09-14T09:07:05.611Z,26.27
2023-09-14T09:08:07.908Z,26.02
2023-09-14T09:09:11.862Z,25.89
2023-09-14T09:10:17.831Z,25.71
2023-09-14T09:11:20.121Z,25.39
2023-09-14T09:12:22.276Z,25.36
2023-09-14T09:13:33.163Z,25.21
2023-09-14T09:14:38.517Z,25.18
2023-09-14T09:15:40.672Z,25.34
2023-09-14T09:16:42.916Z,26.18
2023-09-14T09:17:45.702Z,26.75
2023-09-14T09:19:04.913Z,26.73
2023-09-14T09:20:17.833Z,26.84
2023-09-14T09:21:33.810Z,26.34
2023-09-14T09:22:40.667Z,25.66
2023-09-14T09:23:42.806Z,25.21
2023-09-14T09:24:45.047Z,24.87
2023-09-14T09:25:52.200Z,24.67
2023-09-14T09:26:55.624Z,24.66
2023-09-14T09:27:58.924Z,24.38
2023-09-14T09:29:01.073Z,24.17
2023-09-14T09:30:04.787Z,24.10
2023-09-14T09:31:06.945Z,24.10
2023-09-14T09:32:21.862Z,24.08
2023-09-14T09:33:42.356Z,24.20
2023-09-14T09:34:44.504Z,24.23
2023-09-14T09:35:46.633Z,24.28
2023-09-14T09:36:49.431Z,24.39
2023-09-14T09:37:52.403Z,24.41
2023-09-14T09:38:55.407Z,25.08
2023-09-14T09:39:58.441Z,25.93
2023-09-14T09:41:01.692Z,26.72
2023-09-14T09:42:04.350Z,27.48
2023-09-14T09:43:08.800Z,27.74
2023-09-14T09:44:11.021Z,28.09
2023-09-14T09:45:14.247Z,28.70
2023-09-14T09:46:17.189Z,28.24
2023-09-14T09:47:20.592Z,27.93
2023-09-14T09:48:22.739Z,27.45
2023-09-14T09:49:25.736Z,27.17
2023-09-14T09:50:28.211Z,26.94
2023-09-14T09:51:30.952Z,26.70
2023-09-14T09:52:34.438Z,26.32
2023-09-14T09:53:37.238Z,26.39
2023-09-14T09:54:39.411Z,26.22
2023-09-14T09:55:44.428Z,26.07
2023-09-14T09:56:46.630Z,26.00
2023-09-14T09:57:55.416Z,25.75
2023-09-14T09:58:57.847Z,26.18
2023-09-14T10:00:00.099Z,26.25
2023-09-14T10:01:02.498Z,27.24
2023-09-14T10:02:04.628Z,27.53
2023-09-14T10:03:07.485Z,27.48
2023-09-14T10:04:10.996Z,27.34
2023-09-14T10:05:13.226Z,27.02
2023-09-14T10:06:15.542Z,26.54
2023-09-14T10:07:22.921Z,26.11
2023-09-14T10:08:25.139Z,25.89
2023-09-14T10:09:34.072Z,25.74
2023-09-14T10:10:36.656Z,25.73
2023-09-14T10:11:39.811Z,25.53
2023-09-14T10:12:42.529Z,25.58
2023-09-14T10:13:44.954Z,25.57
2023-09-14T10:14:49.624Z,26.36
2023-09-14T10:15:54.446Z,26.38
2023-09-14T10:16:57.747Z,26.35
2023-09-14T10:17:59.948Z,26.33
2023-09-14T10:19:04.018Z,26.18
2023-09-14T10:20:07.473Z,26.21
2023-09-14T10:21:09.731Z,25.95
2023-09-14T10:22:12.329Z,25.81
2023-09-14T10:23:16.978Z,25.74
2023-09-14T10:24:19.940Z,25.71
2023-09-14T10:25:22.505Z,25.77
2023-09-14T10:26:25.059Z,25.85
2023-09-14T10:27:30.718Z,25.90
2023-09-14T10:28:33.482Z,25.99
2023-09-14T10:29:39.440Z,25.96
2023-09-14T10:30:43.373Z,26.13
2023-09-14T10:31:47.956Z,26.25
2023-09-14T10:32:53.877Z,26.15
2023-09-14T10:34:01.364Z,26.17
2023-09-14T10:35:06.869Z,26.24
2023-09-14T10:36:10.627Z,26.44
2023-09-14T10:37:13.082Z,26.62
2023-09-14T10:38:15.680Z,26.54
2023-09-14T10:39:23.409Z,26.36
2023-09-14T10:40:27.611Z,26.34
2023-09-14T10:41:29.813Z,26.38
2023-09-14T10:42:32.073Z,26.73
2023-09-14T10:43:34.279Z,27.47
2023-09-14T10:44:36.661Z,28.09
2023-09-14T10:45:40.395Z,28.54
2023-09-14T10:46:43.790Z,29.14
2023-09-14T10:47:49.806Z,29.07
2023-09-14T10:48:52.471Z,28.64
2023-09-14T10:49:55.502Z,28.74
2023-09-14T10:50:59.583Z,28.55
2023-09-14T10:52:02.066Z,28.51
2023-09-14T10:53:04.469Z,28.37
2023-09-14T10:54:06.723Z,28.20
2023-09-14T10:55:10.203Z,29.06
2023-09-14T10:56:32.914Z,29.65
2023-09-14T10:57:36.231Z,29.36
2023-09-14T10:58:42.899Z,29.08
2023-09-14T10:59:48.514Z,28.93
2023-09-14T11:00:58.330Z,29.38
2023-09-14T11:02:18.985Z,29.34
2023-09-14T11:03:25.018Z,29.28
2023-09-14T11:04:28.238Z,29.24
2023-09-14T11:05:44.937Z,29.05
2023-09-14T11:06:57.299Z,28.39
2023-09-14T11:08:02.644Z,28.82
2023-09-14T11:09:07.841Z,29.18
2023-09-14T11:10:11.747Z,29.71
2023-09-14T11:11:14.268Z,30.86
2023-09-14T11:12:22.752Z,31.57
2023-09-14T11:13:28.187Z,31.02
2023-09-14T11:14:31.988Z,30.91
2023-09-14T11:15:35.858Z,30.94
2023-09-14T11:16:51.059Z,30.69
2023-09-14T11:17:55.248Z,30.81
2023-09-14T11:18:59.547Z,30.79
2023-09-14T11:20:03.584Z,30.18
2023-09-14T11:21:08.210Z,30.24
2023-09-14T11:22:19.156Z,30.29
2023-09-14T11:23:34.078Z,29.57
2023-09-14T11:24:39.475Z,28.89
2023-09-14T11:26:00.538Z,28.53
2023-09-14T11:27:08.508Z,28.01
2023-09-14T11:28:22.310Z,27.72
2023-09-14T11:29:28.399Z,27.29
2023-09-14T11:30:32.677Z,26.75
2023-09-14T11:31:55.756Z,26.38
2023-09-14T11:32:59.230Z,26.12
2023-09-14T11:34:11.849Z,26.06
2023-09-14T11:35:18.926Z,25.95
2023-09-14T11:36:22.705Z,25.95
2023-09-14T11:37:29.491Z,26.02
2023-09-14T11:38:33.727Z,25.94
2023-09-14T11:39:38.381Z,25.85
2023-09-14T11:40:41.468Z,25.92
2023-09-14T11:41:50.222Z,25.88
2023-09-14T11:43:16.842Z,25.87
2023-09-14T11:45:25.146Z,25.77
2023-09-14T11:46:28.987Z,25.91
2023-09-14T11:47:35.247Z,25.79
2023-09-14T11:49:51.241Z,25.46
2023-09-14T11:50:53.960Z,25.55
2023-09-14T11:51:56.776Z,25.59
2023-09-14T11:52:59.860Z,25.60
2023-09-14T11:54:02.829Z,25.70
2023-09-14T11:55:05.905Z,25.68
2023-09-14T11:56:08.216Z,25.70
2023-09-14T11:57:10.444Z,25.80
2023-09-14T11:58:14.362Z,25.85
2023-09-14T11:59:32.504Z,25.96
2023-09-14T12:00:39.063Z,26.38
2023-09-14T12:01:41.684Z,26.50
2023-09-14T12:02:44.020Z,26.55
2023-09-14T12:03:46.677Z,27.35
2023-09-14T12:04:50.317Z,27.62
2023-09-14T12:05:58.190Z,27.54
2023-09-14T12:07:03.199Z,27.21
2023-09-14T12:08:12.483Z,26.94
2023-09-14T12:09:30.827Z,26.88
2023-09-14T12:10:36.934Z,27.07
2023-09-14T12:11:40.967Z,26.87
2023-09-14T12:12:43.159Z,26.88
2023-09-14T12:13:51.811Z,26.86
2023-09-14T12:14:54.195Z,26.65
2023-09-14T12:16:01.401Z,26.50
2023-09-14T12:17:04.061Z,26.49
2023-09-14T12:18:06.544Z,26.34
2023-09-14T12:19:13.234Z,26.43
2023-09-14T12:20:16.411Z,26.38
2023-09-14T12:21:20.324Z,26.69
2023-09-14T12:22:23.708Z,26.69
2023-09-14T12:23:26.023Z,26.36
2023-09-14T12:24:28.294Z,26.27
2023-09-14T12:25:30.664Z,26.24
2023-09-14T12:26:33.353Z,26.12
2023-09-14T12:27:37.226Z,26.07
2023-09-14T12:28:40.396Z,26.03
2023-09-14T12:29:43.382Z,26.11
2023-09-14T12:30:45.594Z,26.14
2023-09-14T12:31:47.937Z,26.13
2023-09-14T12:32:50.179Z,26.11
2023-09-14T12:33:53.172Z,26.26
2023-09-14T12:34:55.462Z,26.73
2023-09-14T12:35:58.735Z,27.63
2023-09-14T12:37:01.973Z,27.34
2023-09-14T12:38:07.483Z,26.61
2023-09-14T12:39:28.298Z,26.84
2023-09-14T12:40:35.271Z,27.13
2023-09-14T12:41:37.456Z,27.07
2023-09-14T12:42:43.882Z,26.72
2023-09-14T12:43:46.448Z,26.36
2023-09-14T12:44:50.021Z,26.01
2023-09-14T12:45:52.382Z,25.87
2023-09-14T12:46:54.939Z,25.75
2023-09-14T12:47:57.196Z,25.70
2023-09-14T12:49:02.523Z,25.54
2023-09-14T12:50:05.842Z,25.57
2023-09-14T12:51:08.023Z,25.63
2023-09-14T12:52:10.225Z,25.64
2023-09-14T12:53:14.635Z,25.35
2023-09-14T12:54:19.946Z,25.32
2023-09-14T12:55:23.458Z,25.24
2023-09-14T12:56:25.846Z,25.39
2023-09-14T12:57:28.099Z,25.38
2023-09-14T12:58:30.850Z,25.33
2023-09-14T12:59:33.011Z,25.29
2023-09-14T13:00:35.788Z,25.18
2023-09-14T13:01:40.636Z,25.35
2023-09-14T13:02:44.524Z,25.54
2023-09-14T13:03:46.942Z,25.81
2023-09-14T13:04:49.332Z,25.75
2023-09-14T13:05:54.718Z,25.68
2023-09-14T13:06:58.104Z,25.62
2023-09-14T13:08:01.688Z,25.62
2023-09-14T13:09:09.005Z,25.44
2023-09-14T13:10:13.097Z,25.63
2023-09-14T13:11:25.062Z,25.51
2023-09-14T13:12:27.255Z,25.51
2023-09-14T13:13:31.534Z,25.42
2023-09-14T13:14:35.727Z,25.45
2023-09-14T13:15:40.673Z,25.46
2023-09-14T13:16:59.279Z,25.46
2023-09-14T13:18:09.422Z,25.48
2023-09-14T13:19:11.672Z,25.46
2023-09-14T13:20:13.920Z,25.33
2023-09-14T13:21:16.130Z,25.39
2023-09-14T13:22:18.369Z,25.29
2023-09-14T13:23:21.038Z,25.29
2023-09-14T13:24:23.354Z,25.28
2023-09-14T13:25:25.873Z,25.01
2023-09-14T13:26:28.025Z,24.98
2023-09-14T13:27:32.916Z,25.04
2023-09-14T13:28:35.081Z,25.20
2023-09-14T13:29:37.225Z,25.21
2023-09-14T13:30:40.248Z,25.06
2023-09-14T13:31:42.683Z,24.98
2023-09-14T13:32:47.944Z,25.02
2023-09-14T13:33:50.217Z,24.90
2023-09-14T13:34:52.361Z,24.92
2023-09-14T13:35:56.143Z,24.95
2023-09-14T13:36:58.376Z,24.94
2023-09-14T13:38:00.812Z,24.84
2023-09-14T13:39:02.972Z,24.87
2023-09-14T13:40:15.770Z,24.93
2023-09-14T13:41:17.959Z,24.94
2023-09-14T13:42:20.105Z,24.84
2023-09-14T13:43:22.404Z,24.69